Time;durP1;ratioP1;P1;durP2;ratioP2;P2;SDS_P1;SDS_P2;PMS_P1;PMS_P2;Temp;Humidity;BMP_temperature;BMP_pressure;BME280_temperature;BME280_humidity;BME280_pressure;Samples;Min_cycle;Max_cycle;Signal;HPM_P1;HPM_P2
2021/01/22 00:02:33;;;;;;;12.80;4.13;;;24.30;64.10;;;;;;6240452;23;20008;-69
2021/01/22 00:05:40;;;;;;;13.48;5.22;;;24.30;64.00;;;;;;6242715;23;20000;-69
2021/01/22 00:08:46;;;;;;;15.18;5.38;;;24.30;64.10;;;;;;6241580;23;20008;-68
2021/01/22 00:11:31;;;;;;;;;;;24.30;64.10;;;;;;6241907;23;20024;-73
2021/01/22 00:14:37;;;;;;;12.43;4.93;;;24.30;64.10;;;;;;6241931;23;20236;-68
2021/01/22 00:17:44;;;;;;;8.80;4.22;;;24.30;64.10;;;;;;6242877;23;20100;-69
2021/01/22 00:20:30;;;;;;;;;;;24.30;64.10;;;;;;6241568;23;20007;-70
2021/01/22 00:23:38;;;;;;;12.15;4.20;;;24.20;64.10;;;;;;6242234;23;19973;-68
2021/01/22 00:26:44;;;;;;;13.05;4.95;;;24.30;64.20;;;;;;6242286;22;20016;-68
2021/01/22 00:29:51;;;;;;;17.73;4.32;;;24.20;64.10;;;;;;6241976;23;20004;-69
2021/01/22 00:32:57;;;;;;;16.42;6.05;;;24.20;64.10;;;;;;6241088;23;20005;-68
2021/01/22 00:35:43;;;;;;;;;;;24.20;64.00;;;;;;6243477;23;20604;-68
2021/01/22 00:38:49;;;;;;;12.98;4.63;;;24.20;64.00;;;;;;6242850;23;19923;-68
2021/01/22 00:41:55;;;;;;;9.80;3.20;;;24.20;63.90;;;;;;6241151;23;20004;-68
2021/01/22 00:45:01;;;;;;;7.65;3.67;;;24.20;63.70;;;;;;6242260;23;20007;-68
2021/01/22 00:48:07;;;;;;;8.38;3.50;;;24.20;63.60;;;;;;6241972;23;20376;-68
2021/01/22 00:51:13;;;;;;;8.48;3.10;;;24.20;63.50;;;;;;6241372;23;20067;-69
2021/01/22 00:54:19;;;;;;;12.70;4.07;;;24.20;63.30;;;;;;6240976;23;20320;-68
2021/01/22 00:57:25;;;;;;;11.77;4.63;;;24.10;63.20;;;;;;6242073;23;19996;-68
2021/01/22 01:00:11;;;;;;;;;;;24.20;63.00;;;;;;6242604;23;20016;-68
2021/01/22 01:03:17;;;;;;;9.60;4.75;;;24.10;62.90;;;;;;6240975;23;19903;-68
2021/01/22 01:06:23;;;;;;;7.10;3.63;;;24.20;62.80;;;;;;6242505;23;20001;-68
2021/01/22 01:09:29;;;;;;;9.85;3.53;;;24.10;62.70;;;;;;6241927;23;20003;-68
2021/01/22 01:12:35;;;;;;;8.57;4.45;;;24.10;62.60;;;;;;6240826;23;20000;-70
2021/01/22 01:15:41;;;;;;;12.90;3.63;;;24.10;62.70;;;;;;6241811;23;20007;-68
2021/01/22 01:18:47;;;;;;;8.50;3.38;;;24.10;62.70;;;;;;6242324;23;19996;-69
2021/01/22 01:21:53;;;;;;;10.13;3.45;;;24.00;62.60;;;;;;6241589;23;20034;-68
2021/01/22 01:24:59;;;;;;;9.60;3.42;;;24.00;62.50;;;;;;6240782;23;20004;-68
2021/01/22 01:28:05;;;;;;;11.10;3.70;;;24.00;62.00;;;;;;6241951;23;20018;-68
2021/01/22 01:31:11;;;;;;;6.97;2.83;;;23.90;61.50;;;;;;6241990;23;20364;-69
2021/01/22 01:34:17;;;;;;;7.25;3.30;;;24.00;60.90;;;;;;6240766;23;20293;-68
2021/01/22 01:37:24;;;;;;;7.47;2.47;;;23.90;60.40;;;;;;6241748;23;20054;-68
2021/01/22 01:40:30;;;;;;;6.72;2.90;;;23.90;60.10;;;;;;6242393;23;20027;-68
2021/01/22 01:43:36;;;;;;;6.50;2.83;;;23.90;59.90;;;;;;6241890;23;20004;-68
2021/01/22 01:46:42;;;;;;;8.52;2.10;;;23.90;59.70;;;;;;6240221;23;20012;-68
2021/01/22 01:49:48;;;;;;;5.28;1.80;;;23.90;59.50;;;;;;6241851;23;20010;-68
2021/01/22 01:52:54;;;;;;;12.60;3.33;;;23.80;59.40;;;;;;6241713;23;20577;-68
2021/01/22 01:56:00;;;;;;;8.25;3.03;;;23.80;59.40;;;;;;6240682;23;20000;-68
2021/01/22 01:59:06;;;;;;;10.27;3.47;;;23.80;59.40;;;;;;6240967;23;20014;-68
2021/01/22 02:02:12;;;;;;;11.15;3.40;;;23.80;59.40;;;;;;6241814;23;20066;-68
2021/01/22 02:05:18;;;;;;;12.93;3.15;;;23.80;59.40;;;;;;6240891;23;20111;-68
2021/01/22 02:08:24;;;;;;;13.63;3.17;;;23.70;59.30;;;;;;6240189;23;20008;-68
2021/01/22 02:11:10;;;;;;;;;;;23.70;59.40;;;;;;6241972;23;20075;-68
2021/01/22 02:14:16;;;;;;;15.75;3.75;;;23.70;59.50;;;;;;6242064;23;19903;-68
2021/01/22 02:16:44;;;;;;;15.23;4.55;;;23.60;59.50;;;;;;6240140;23;20011;-69
2021/01/22 02:19:11;;;;;;;7.82;3.00;;;23.60;59.60;;;;;;6241056;23;20000;-68
2021/01/22 02:21:39;;;;;;;8.05;3.85;;;23.60;59.50;;;;;;6240480;23;20007;-68
2021/01/22 02:24:23;;;;;;;12.40;3.80;;;23.60;59.50;;;;;;6240752;23;20004;-68
2021/01/22 02:26:57;;;;;;;12.80;4.35;;;23.60;59.50;;;;;;6241667;23;20012;-68
2021/01/22 02:29:25;;;;;;;12.00;3.00;;;23.50;59.50;;;;;;6240012;23;20031;-68
2021/01/22 02:31:54;;;;;;;13.35;4.68;;;23.50;59.60;;;;;;6241827;23;20011;-68
2021/01/22 02:34:34;;;;;;;10.18;3.20;;;23.50;59.60;;;;;;6239480;23;20004;-69
2021/01/22 02:37:03;;;;;;;13.18;3.97;;;23.50;59.70;;;;;;6241286;23;20455;-68
2021/01/22 02:39:37;;;;;;;10.40;3.35;;;23.50;59.70;;;;;;6240878;23;20001;-68
2021/01/22 02:42:08;;;;;;;12.00;4.07;;;23.50;59.80;;;;;;6238713;23;20553;-69
2021/01/22 02:44:36;;;;;;;12.65;2.67;;;23.50;59.80;;;;;;6241753;23;20105;-69
2021/01/22 02:47:08;;;;;;;6.65;2.75;;;23.50;59.80;;;;;;6239202;22;20016;-69
2021/01/22 02:49:37;;;;;;;11.40;3.85;;;23.50;59.90;;;;;;6241015;23;20364;-68
2021/01/22 02:52:06;;;;;;;7.47;3.47;;;23.50;60.00;;;;;;6240522;23;20000;-69
2021/01/22 02:54:32;;;;;;;11.73;3.00;;;23.40;60.10;;;;;;6239340;23;20356;-69
2021/01/22 02:57:19;;;;;;;9.88;3.35;;;23.40;60.20;;;;;;6241952;23;20000;-69
2021/01/22 03:00:01;;;;;;;12.88;2.72;;;23.40;60.20;;;;;;6239931;22;20016;-72
2021/01/22 03:02:49;;;;;;;12.27;3.92;;;23.40;60.10;;;;;;6241441;23;20004;-72
2021/01/22 03:05:18;;;;;;;7.68;3.63;;;23.40;60.10;;;;;;6240657;23;20146;-73
2021/01/22 03:08:00;;;;;;;11.93;4.57;;;23.40;60.10;;;;;;6240727;23;20012;-68
2021/01/22 03:10:29;;;;;;;5.85;2.58;;;23.30;60.10;;;;;;6241161;23;20007;-68
2021/01/22 03:12:57;;;;;;;13.90;3.03;;;23.30;60.20;;;;;;6234669;23;20028;-68
2021/01/22 03:15:26;;;;;;;10.05;3.88;;;23.30;60.30;;;;;;6240581;23;20059;-68
2021/01/22 03:18:13;;;;;;;7.82;2.55;;;23.30;60.40;;;;;;6239555;23;20074;-68
2021/01/22 03:20:44;;;;;;;6.75;2.40;;;23.30;60.30;;;;;;6240296;23;20046;-68
2021/01/22 03:23:12;;;;;;;9.68;3.35;;;23.30;60.40;;;;;;6240087;23;20070;-68
2021/01/22 03:25:39;;;;;;;11.90;2.88;;;23.30;60.40;;;;;;6239242;23;20000;-68
2021/01/22 03:28:06;;;;;;;9.10;3.22;;;23.30;60.40;;;;;;6240983;23;20023;-68
2021/01/22 03:30:33;;;;;;;11.85;3.67;;;23.30;60.40;;;;;;6239580;23;19996;-68
2021/01/22 03:33:00;;;;;;;8.30;2.55;;;23.30;60.40;;;;;;6241879;23;19996;-68
2021/01/22 03:35:27;;;;;;;9.07;3.20;;;23.30;60.50;;;;;;6241843;23;20028;-68
2021/01/22 03:37:55;;;;;;;12.30;4.85;;;23.30;60.60;;;;;;6242214;23;20008;-68
2021/01/22 03:40:22;;;;;;;12.02;3.60;;;23.20;60.70;;;;;;6242149;23;19996;-69
2021/01/22 03:42:48;;;;;;;12.77;4.30;;;23.30;61.00;;;;;;6241982;23;20088;-68
2021/01/22 03:45:16;;;;;;;15.07;5.18;;;23.30;61.30;;;;;;6242718;23;20086;-68
2021/01/22 03:47:44;;;;;;;9.80;3.90;;;23.30;61.60;;;;;;6241187;23;20051;-68
2021/01/22 03:50:11;;;;;;;14.75;5.43;;;23.30;62.20;;;;;;6242688;23;20008;-70
2021/01/22 03:52:38;;;;;;;14.32;5.20;;;23.30;62.40;;;;;;6241834;23;20022;-68
2021/01/22 03:55:06;;;;;;;17.45;6.38;;;23.30;62.60;;;;;;6242246;23;20451;-68
2021/01/22 03:57:33;;;;;;;11.50;5.57;;;23.30;62.70;;;;;;6242720;23;20416;-68
2021/01/22 03:59:59;;;;;;;11.73;4.15;;;23.30;62.80;;;;;;6241728;23;20079;-68
2021/01/22 04:02:26;;;;;;;15.25;4.07;;;23.30;63.00;;;;;;6242404;22;20008;-68
2021/01/22 04:04:52;;;;;;;15.50;4.72;;;23.30;63.70;;;;;;6241488;23;20000;-68
2021/01/22 04:07:19;;;;;;;14.07;5.30;;;23.30;63.10;;;;;;6242912;23;20008;-67
2021/01/22 04:09:46;;;;;;;15.77;5.80;;;23.20;63.20;;;;;;6241904;23;20004;-68
2021/01/22 04:12:13;;;;;;;15.05;6.18;;;23.20;63.30;;;;;;6242892;23;20004;-67
2021/01/22 04:14:39;;;;;;;20.52;11.55;;;23.30;63.40;;;;;;6241961;23;20078;-68
2021/01/22 04:17:05;;;;;;;31.58;20.55;;;23.20;63.50;;;;;;6241801;23;20000;-68
2021/01/22 04:19:32;;;;;;;27.00;18.15;;;23.20;63.60;;;;;;6243405;23;20000;-68
2021/01/22 04:21:58;;;;;;;23.98;13.45;;;23.20;63.60;;;;;;6241499;23;20071;-67
2021/01/22 04:24:26;;;;;;;19.02;8.60;;;23.20;63.60;;;;;;6242269;23;20024;-67
2021/01/22 04:26:53;;;;;;;16.80;7.78;;;23.20;63.70;;;;;;6240952;23;20073;-67
2021/01/22 04:29:20;;;;;;;18.05;6.75;;;23.20;63.90;;;;;;6243037;23;20083;-67
2021/01/22 04:31:46;;;;;;;11.60;4.78;;;23.20;64.00;;;;;;6242032;23;20443;-67
2021/01/22 04:34:13;;;;;;;13.85;5.57;;;23.20;64.10;;;;;;6241317;23;20004;-67
2021/01/22 04:36:39;;;;;;;11.98;6.45;;;23.20;64.30;;;;;;6242951;23;20047;-68
2021/01/22 04:39:06;;;;;;;16.08;6.70;;;23.20;64.50;;;;;;6241345;23;19992;-67
2021/01/22 04:41:33;;;;;;;14.68;5.38;;;23.20;64.60;;;;;;6242424;23;20668;-67
2021/01/22 04:44:01;;;;;;;17.65;5.30;;;23.20;65.30;;;;;;6240283;23;20008;-67
2021/01/22 04:46:33;;;;;;;21.40;6.50;;;23.10;66.10;;;;;;6242159;23;20066;-67
2021/01/22 04:49:00;;;;;;;18.42;8.85;;;23.10;65.90;;;;;;6241861;23;20000;-67
2021/01/22 04:51:29;;;;;;;16.02;6.25;;;23.10;65.80;;;;;;6241457;23;20004;-67
2021/01/22 04:54:02;;;;;;;14.93;5.72;;;23.20;65.90;;;;;;6241619;23;19996;-67
2021/01/22 04:56:31;;;;;;;16.98;7.95;;;23.20;65.90;;;;;;6240958;23;20000;-67
2021/01/22 04:59:02;;;;;;;12.07;4.18;;;23.20;66.30;;;;;;6242264;23;20026;-67
2021/01/22 05:01:31;;;;;;;12.75;4.45;;;23.10;66.40;;;;;;6240732;23;20019;-68
2021/01/22 05:03:58;;;;;;;16.35;4.75;;;23.20;66.60;;;;;;6242681;23;20019;-67
2021/01/22 05:06:25;;;;;;;13.25;4.40;;;23.20;66.70;;;;;;6241436;23;20079;-67
2021/01/22 05:08:54;;;;;;;18.30;5.88;;;23.20;66.90;;;;;;6241032;23;20058;-67
2021/01/22 05:11:21;;;;;;;15.35;5.38;;;23.20;67.10;;;;;;6242376;23;20031;-67
2021/01/22 05:13:48;;;;;;;13.18;3.13;;;23.20;67.10;;;;;;6240736;23;20003;-68
2021/01/22 05:16:16;;;;;;;11.38;4.53;;;23.20;67.30;;;;;;6241051;23;20000;-67
2021/01/22 05:18:45;;;;;;;10.20;3.55;;;23.20;67.50;;;;;;6240458;23;20320;-67
2021/01/22 05:21:13;;;;;;;13.70;5.03;;;23.20;67.80;;;;;;6242677;23;20016;-67
2021/01/22 05:23:43;;;;;;;12.70;6.80;;;23.20;67.80;;;;;;6240857;23;20004;-67
2021/01/22 05:26:11;;;;;;;17.27;6.50;;;23.20;68.00;;;;;;6240811;23;20538;-68
2021/01/22 05:28:45;;;;;;;14.05;5.35;;;23.20;68.20;;;;;;6242221;23;20008;-68
2021/01/22 05:31:14;;;;;;;12.30;4.72;;;23.20;68.40;;;;;;6240736;23;20004;-67
2021/01/22 05:33:53;;;;;;;12.70;4.93;;;23.20;68.40;;;;;;6241960;23;20403;-67
2021/01/22 05:36:29;;;;;;;22.33;6.50;;;23.20;68.40;;;;;;6241189;23;20012;-66
2021/01/22 05:38:59;;;;;;;14.45;6.15;;;23.30;68.70;;;;;;6235145;23;20008;-67
2021/01/22 05:41:27;;;;;;;8.15;5.72;;;23.30;68.80;;;;;;6240315;23;20023;-67
2021/01/22 05:43:54;;;;;;;11.10;5.80;;;23.30;68.80;;;;;;6237308;23;20029;-67
2021/01/22 05:46:23;;;;;;;14.00;6.75;;;23.30;68.90;;;;;;6241516;23;20012;-67
2021/01/22 05:49:13;;;;;;;19.60;5.68;;;23.30;69.10;;;;;;6240331;23;20352;-67
2021/01/22 05:52:20;;;;;;;13.07;5.28;;;23.30;69.20;;;;;;6240971;23;20008;-70
2021/01/22 05:55:44;;;;;;;13.30;3.95;;;23.40;69.20;;;;;;6237218;23;20329;-67
2021/01/22 05:58:50;;;;;;;16.90;4.95;;;23.40;69.30;;;;;;6235840;23;20022;-67
2021/01/22 06:01:56;;;;;;;16.95;4.35;;;23.40;69.40;;;;;;6239662;23;20009;-68
2021/01/22 06:04:27;;;;;;;18.10;4.22;;;23.50;69.40;;;;;;6239705;23;20004;-68
2021/01/22 06:06:54;;;;;;;14.45;3.10;;;23.50;69.50;;;;;;6238205;23;20012;-68
2021/01/22 06:09:34;;;;;;;15.80;4.13;;;23.50;69.50;;;;;;6241039;23;20001;-68
2021/01/22 06:12:06;;;;;;;8.05;3.35;;;23.50;69.60;;;;;;6240565;23;20008;-66
2021/01/22 06:14:36;;;;;;;16.13;3.90;;;23.60;69.60;;;;;;6239954;23;20036;-69
2021/01/22 06:17:06;;;;;;;12.88;3.88;;;23.60;69.50;;;;;;6241641;23;20035;-71
2021/01/22 06:19:39;;;;;;;10.38;3.60;;;23.60;69.80;;;;;;6240045;23;20004;-68
2021/01/22 06:22:46;;;;;;;7.05;3.72;;;23.60;69.70;;;;;;6240453;23;20454;-69
2021/01/22 06:25:55;;;;;;;12.30;3.65;;;23.60;69.50;;;;;;6239956;23;20015;-66
2021/01/22 06:29:16;;;;;;;9.18;4.32;;;23.70;69.60;;;;;;6240068;23;20019;-72
2021/01/22 06:32:22;;;;;;;12.63;3.67;;;23.70;69.30;;;;;;6238286;23;20011;-67
2021/01/22 06:35:28;;;;;;;8.15;3.65;;;23.80;69.30;;;;;;6240492;23;20021;-66
2021/01/22 06:38:34;;;;;;;9.10;3.40;;;23.90;69.10;;;;;;6240742;23;20011;-73
2021/01/22 06:41:40;;;;;;;11.15;2.45;;;23.90;68.90;;;;;;6239784;23;20004;-67
2021/01/22 06:44:46;;;;;;;10.40;4.00;;;23.90;68.80;;;;;;6240442;23;20016;-69
2021/01/22 06:47:32;;;;;;;;;;;24.00;68.50;;;;;;6241184;23;20031;-71
2021/01/22 06:50:41;;;;;;;10.20;2.95;;;24.00;68.50;;;;;;6239338;23;20300;-73
2021/01/22 06:53:57;;;;;;;9.85;3.10;;;24.00;68.70;;;;;;6239342;23;20000;-67
2021/01/22 06:56:49;;;;;;;10.57;2.85;;;24.10;68.60;;;;;;6240969;23;20000;-68
2021/01/22 06:59:21;;;;;;;7.13;2.83;;;24.10;68.60;;;;;;6239953;22;20006;-69
2021/01/22 07:02:26;;;;;;;8.05;3.88;;;24.20;68.70;;;;;;6240093;23;20005;-67
2021/01/22 07:05:31;;;;;;;12.20;3.53;;;24.20;68.30;;;;;;6241323;22;20019;-69
2021/01/22 07:08:37;;;;;;;10.95;3.33;;;24.20;68.10;;;;;;6243436;22;20035;-69
2021/01/22 07:11:43;;;;;;;8.48;3.13;;;24.20;67.70;;;;;;6241807;23;20000;-68
2021/01/22 07:14:52;;;;;;;11.80;3.97;;;24.20;67.30;;;;;;6243109;23;20066;-68
2021/01/22 07:18:01;;;;;;;9.80;3.72;;;24.30;66.90;;;;;;6243609;23;20011;-71
2021/01/22 07:21:07;;;;;;;11.90;4.72;;;24.30;66.30;;;;;;6241636;23;20432;-69
2021/01/22 07:24:15;;;;;;;15.15;4.95;;;24.30;66.00;;;;;;6241568;23;20426;-68
2021/01/22 07:27:21;;;;;;;18.65;4.82;;;24.30;65.80;;;;;;6243000;23;20484;-68
2021/01/22 07:30:25;;;;;;;12.50;4.93;;;24.40;65.30;;;;;;6243001;23;20332;-69
2021/01/22 07:33:27;;;;;;;11.05;4.88;;;24.40;65.10;;;;;;6240834;23;20083;-68
2021/01/22 07:36:31;;;;;;;19.20;4.70;;;24.40;65.30;;;;;;6243166;22;20384;-68
2021/01/22 07:39:37;;;;;;;14.05;4.30;;;24.50;64.80;;;;;;6242878;23;20008;-68
2021/01/22 07:42:03;;;;;;;;;;;24.60;65.00;;;;;;6243061;23;20091;-70
2021/01/22 07:45:10;;;;;;;17.13;4.72;;;24.60;65.10;;;;;;6242786;23;19907;-68
2021/01/22 07:47:56;;;;;;;;;;;24.70;65.20;;;;;;6243375;23;20016;-70
2021/01/22 07:51:02;;;;;;;14.07;4.18;;;24.70;65.40;;;;;;6242086;23;20353;-69
2021/01/22 07:54:17;;;;;;;11.82;3.35;;;24.70;65.00;;;;;;6242041;23;20004;-73
2021/01/22 07:57:23;;;;;;;12.55;3.20;;;24.80;65.30;;;;;;6242933;23;20656;-71
2021/01/22 08:00:09;;;;;;;;;;;24.80;65.60;;;;;;6243415;23;20008;-68
2021/01/22 08:02:59;;;;;;;10.00;2.45;;;24.80;65.70;;;;;;6241769;23;19900;-67
2021/01/22 08:05:36;;;;;;;5.97;2.10;;;24.90;65.80;;;;;;6242828;23;20046;-69
2021/01/22 08:08:19;;;;;;;7.97;2.53;;;25.00;66.10;;;;;;6241656;23;20040;-67
2021/01/22 08:10:46;;;;;;;8.98;2.38;;;25.00;65.60;;;;;;6241997;23;20000;-67
2021/01/22 08:13:15;;;;;;;12.30;2.05;;;25.10;65.30;;;;;;6242589;23;20034;-67
2021/01/22 08:15:44;;;;;;;6.35;2.00;;;25.10;65.20;;;;;;6241602;23;20075;-68
2021/01/22 08:18:14;;;;;;;5.50;2.53;;;25.20;65.20;;;;;;6243110;23;20467;-67
2021/01/22 08:20:50;;;;;;;8.05;2.25;;;25.20;64.90;;;;;;6241418;23;20042;-67
2021/01/22 08:23:17;;;;;;;12.85;2.80;;;25.30;64.70;;;;;;6242170;23;20002;-68
2021/01/22 08:25:45;;;;;;;10.80;3.60;;;25.30;65.00;;;;;;6242786;23;20320;-68
2021/01/22 08:28:12;;;;;;;10.63;3.35;;;25.40;64.80;;;;;;6241796;23;20015;-68
2021/01/22 08:30:39;;;;;;;6.32;2.78;;;25.40;64.90;;;;;;6243067;23;20000;-67
2021/01/22 08:33:06;;;;;;;8.00;2.33;;;25.40;64.80;;;;;;6240219;23;20012;-67
2021/01/22 08:35:36;;;;;;;6.88;3.03;;;25.50;65.30;;;;;;6243071;23;20333;-68
2021/01/22 08:38:04;;;;;;;7.22;2.78;;;25.50;65.00;;;;;;6241258;23;19996;-68
2021/01/22 08:40:43;;;;;;;8.60;3.03;;;25.60;64.70;;;;;;6240775;23;20030;-68
2021/01/22 08:43:14;;;;;;;4.32;1.70;;;25.60;64.70;;;;;;6242802;23;20011;-68
2021/01/22 08:45:41;;;;;;;11.23;4.13;;;25.70;64.40;;;;;;6241454;23;20050;-73
2021/01/22 08:48:09;;;;;;;5.53;1.85;;;25.70;64.50;;;;;;6242396;23;20030;-72
2021/01/22 08:50:36;;;;;;;7.32;2.33;;;25.80;64.60;;;;;;6240978;23;20590;-69
2021/01/22 08:53:09;;;;;;;6.15;2.42;;;25.80;64.20;;;;;;6242555;23;20438;-67
2021/01/22 08:55:37;;;;;;;4.57;2.00;;;25.90;64.10;;;;;;6241414;23;20009;-70
2021/01/22 08:58:11;;;;;;;6.68;1.80;;;26.00;64.00;;;;;;6242167;23;20008;-68
2021/01/22 09:00:38;;;;;;;7.10;2.00;;;26.00;63.80;;;;;;6242111;23;20051;-67
2021/01/22 09:03:19;;;;;;;7.18;2.00;;;26.00;63.50;;;;;;6241074;23;20530;-68
2021/01/22 09:05:50;;;;;;;9.25;2.42;;;26.10;63.10;;;;;;6241891;23;20004;-67
2021/01/22 09:08:16;;;;;;;5.80;2.08;;;26.10;62.70;;;;;;6241147;23;20012;-68
2021/01/22 09:10:49;;;;;;;3.33;1.92;;;26.10;62.70;;;;;;6242210;23;20083;-73
2021/01/22 09:13:25;;;;;;;4.70;1.80;;;26.20;62.20;;;;;;6241744;23;20010;-70
2021/01/22 09:16:11;;;;;;;4.65;1.60;;;26.30;62.70;;;;;;6241848;23;20118;-68
2021/01/22 09:18:38;;;;;;;3.28;1.42;;;26.30;62.10;;;;;;6242364;22;20007;-67
2021/01/22 09:21:06;;;;;;;7.22;1.75;;;26.30;61.80;;;;;;6240886;23;20043;-68
2021/01/22 09:23:33;;;;;;;5.72;1.80;;;26.40;61.90;;;;;;6241866;23;20069;-68
2021/01/22 09:26:00;;;;;;;7.28;2.10;;;26.50;61.80;;;;;;6242112;23;20004;-68
2021/01/22 09:28:27;;;;;;;6.10;1.70;;;26.50;61.50;;;;;;6241344;23;20000;-67
2021/01/22 09:30:53;;;;;;;4.35;1.65;;;26.60;61.30;;;;;;6242171;23;19997;-68
2021/01/22 09:33:20;;;;;;;3.83;1.92;;;26.70;61.20;;;;;;6240649;23;20007;-70
2021/01/22 09:35:46;;;;;;;4.38;1.55;;;26.70;60.70;;;;;;6241767;23;20031;-68
2021/01/22 09:38:13;;;;;;;3.60;1.30;;;26.70;60.80;;;;;;6240457;23;20000;-69
2021/01/22 09:40:39;;;;;;;4.28;1.60;;;26.80;61.00;;;;;;6241707;23;20011;-67
2021/01/22 09:43:07;;;;;;;6.85;2.40;;;26.90;60.90;;;;;;6241209;23;20007;-68
2021/01/22 09:45:33;;;;;;;5.65;2.90;;;26.90;60.50;;;;;;6241474;23;20004;-67
2021/01/22 09:48:39;;;;;;;6.30;2.63;;;27.00;60.30;;;;;;6241214;23;20007;-66
2021/01/22 09:51:45;;;;;;;8.27;2.83;;;27.00;59.80;;;;;;6240682;23;20011;-66
2021/01/22 09:54:52;;;;;;;11.05;3.65;;;27.00;59.10;;;;;;6241306;23;20440;-66
2021/01/22 09:57:18;;;;;;;9.05;2.50;;;27.00;58.70;;;;;;6241156;22;20032;-67
2021/01/22 09:59:45;;;;;;;15.15;4.10;;;27.00;58.70;;;;;;6237929;23;20030;-66
2021/01/22 10:02:12;;;;;;;12.60;4.72;;;27.00;59.00;;;;;;6239986;23;20466;-68
2021/01/22 10:04:39;;;;;;;9.07;3.42;;;27.00;57.90;;;;;;6240071;23;20004;-68
2021/01/22 10:07:06;;;;;;;12.25;5.15;;;27.10;57.90;;;;;;6240776;23;20439;-66
2021/01/22 10:09:33;;;;;;;11.00;3.75;;;27.10;58.10;;;;;;6241049;23;20000;-68
2021/01/22 10:12:00;;;;;;;12.73;4.20;;;27.10;58.00;;;;;;6240976;23;19996;-71
2021/01/22 10:14:27;;;;;;;15.00;4.80;;;27.10;57.90;;;;;;6241148;23;20004;-69
2021/01/22 10:16:54;;;;;;;9.32;3.50;;;27.20;57.90;;;;;;6240257;23;20054;-73
2021/01/22 10:19:20;;;;;;;11.10;3.67;;;27.20;57.80;;;;;;6241576;23;19997;-68
2021/01/22 10:21:47;;;;;;;9.25;3.60;;;27.20;57.50;;;;;;6237616;23;20416;-71
2021/01/22 10:24:14;;;;;;;10.40;4.10;;;27.20;57.50;;;;;;6240803;23;20000;-68
2021/01/22 10:26:40;;;;;;;14.10;3.92;;;27.20;57.90;;;;;;6238777;23;20317;-70
2021/01/22 10:29:06;;;;;;;11.82;3.63;;;27.30;57.20;;;;;;6240243;23;20000;-72
2021/01/22 10:31:33;;;;;;;11.55;3.83;;;27.40;57.10;;;;;;6241687;23;20028;-68
2021/01/22 10:34:00;;;;;;;9.98;3.25;;;27.40;56.70;;;;;;6240358;23;20088;-68
2021/01/22 10:36:26;;;;;;;11.20;4.05;;;27.40;56.60;;;;;;6237834;23;20456;-67
2021/01/22 10:38:53;;;;;;;12.70;3.05;;;27.40;56.50;;;;;;6236227;23;20107;-67
2021/01/22 10:41:20;;;;;;;10.27;4.43;;;27.40;56.00;;;;;;6237333;23;20682;-69
2021/01/22 10:43:46;;;;;;;5.57;3.25;;;27.50;55.50;;;;;;6235302;22;20107;-67
2021/01/22 10:46:13;;;;;;;8.77;2.75;;;27.50;55.70;;;;;;6236811;23;20012;-67
2021/01/22 10:48:39;;;;;;;9.32;4.30;;;27.50;54.90;;;;;;6235051;23;20058;-67
2021/01/22 10:51:07;;;;;;;12.13;3.20;;;28.00;53.90;;;;;;6236810;23;20004;-68
2021/01/22 10:53:33;;;;;;;9.05;4.28;;;28.20;52.40;;;;;;6240170;23;20075;-67
2021/01/22 10:56:00;;;;;;;7.88;2.92;;;28.40;52.10;;;;;;6240541;23;19996;-67
2021/01/22 10:58:26;;;;;;;8.70;3.92;;;28.60;51.40;;;;;;6242122;23;20000;-66
2021/01/22 11:00:53;;;;;;;9.98;3.40;;;28.70;51.20;;;;;;6240159;23;20062;-66
2021/01/22 11:03:20;;;;;;;14.68;4.60;;;28.90;50.60;;;;;;6240479;23;20087;-66
2021/01/22 11:05:47;;;;;;;10.40;4.47;;;28.90;50.20;;;;;;6239757;23;19996;-67
2021/01/22 11:08:14;;;;;;;12.65;3.25;;;28.90;51.00;;;;;;6240217;23;20015;-67
2021/01/22 11:10:40;;;;;;;12.38;3.83;;;29.00;51.00;;;;;;6240989;23;20387;-66
2021/01/22 11:13:07;;;;;;;12.65;3.35;;;29.30;50.40;;;;;;6240275;23;20038;-67
2021/01/22 11:15:34;;;;;;;9.30;3.33;;;29.40;49.60;;;;;;6241169;23;20063;-67
2021/01/22 11:18:01;;;;;;;10.02;3.90;;;29.30;49.90;;;;;;6240593;23;20081;-67
2021/01/22 11:20:28;;;;;;;9.45;3.13;;;29.40;50.00;;;;;;6241752;23;20004;-67
2021/01/22 11:22:54;;;;;;;7.78;3.03;;;29.60;49.50;;;;;;6240242;23;20019;-67
2021/01/22 11:25:21;;;;;;;11.55;3.80;;;29.70;49.70;;;;;;6240679;23;20064;-67
2021/01/22 11:27:49;;;;;;;11.68;4.07;;;29.80;48.90;;;;;;6240879;23;20018;-67
2021/01/22 11:30:16;;;;;;;6.85;3.15;;;29.80;48.70;;;;;;6240158;23;20001;-67
2021/01/22 11:32:42;;;;;;;12.57;3.28;;;30.10;49.50;;;;;;6240982;23;19996;-67
2021/01/22 11:35:10;;;;;;;11.23;3.13;;;29.90;48.80;;;;;;6239764;23;20432;-67
2021/01/22 11:37:38;;;;;;;8.23;3.38;;;30.20;50.10;;;;;;6241200;23;20008;-67
2021/01/22 11:40:07;;;;;;;5.95;2.58;;;30.40;50.50;;;;;;6240775;22;20495;-68
2021/01/22 11:42:34;;;;;;;4.90;2.30;;;30.60;50.80;;;;;;6240633;23;19997;-67
2021/01/22 11:45:01;;;;;;;4.78;2.10;;;30.70;50.70;;;;;;6241405;23;20036;-67
2021/01/22 11:47:27;;;;;;;10.05;2.35;;;30.70;50.90;;;;;;6239397;22;20071;-68
2021/01/22 11:49:54;;;;;;;19.60;4.70;;;30.70;51.00;;;;;;6241182;23;20076;-67
2021/01/22 11:52:20;;;;;;;10.18;2.90;;;30.70;51.30;;;;;;6240356;23;19996;-67
2021/01/22 11:54:47;;;;;;;10.52;3.00;;;30.70;52.10;;;;;;6243559;23;20004;-66
2021/01/22 11:57:14;;;;;;;10.15;3.88;;;30.30;53.10;;;;;;6242348;23;19996;-67
2021/01/22 11:59:41;;;;;;;7.88;2.70;;;30.00;54.10;;;;;;6242529;23;20043;-67
2021/01/22 12:02:07;;;;;;;10.27;3.30;;;29.90;55.10;;;;;;6243226;23;20083;-67
2021/01/22 12:04:34;;;;;;;7.45;2.88;;;29.80;55.50;;;;;;6241932;23;20055;-67
2021/01/22 12:07:00;;;;;;;9.52;2.80;;;29.70;56.10;;;;;;6243131;23;20430;-67
2021/01/22 12:09:27;;;;;;;6.75;2.42;;;29.70;56.40;;;;;;6241777;23;20155;-67
2021/01/22 12:11:54;;;;;;;5.78;2.33;;;29.60;56.90;;;;;;6242455;23;20603;-67
2021/01/22 12:15:00;;;;;;;7.43;2.25;;;29.70;56.90;;;;;;6240707;23;19996;-67
2021/01/22 12:18:06;;;;;;;8.52;2.70;;;29.70;56.90;;;;;;6241739;23;20428;-70
2021/01/22 12:21:13;;;;;;;12.30;5.35;;;29.80;57.40;;;;;;6241520;23;20438;-70
2021/01/22 12:24:19;;;;;;;6.10;3.08;;;29.80;57.40;;;;;;6242378;23;20412;-68
2021/01/22 12:27:25;;;;;;;6.05;2.90;;;29.80;57.30;;;;;;6240963;23;20038;-71
2021/01/22 12:30:31;;;;;;;10.55;4.60;;;29.70;57.50;;;;;;6242438;23;20006;-71
2021/01/22 12:33:37;;;;;;;13.32;4.97;;;29.80;57.70;;;;;;6242360;23;20000;-69
2021/01/22 12:36:43;;;;;;;9.45;2.80;;;29.80;57.80;;;;;;6241260;23;20011;-70
2021/01/22 12:39:10;;;;;;;13.23;3.22;;;29.80;57.70;;;;;;6241252;23;20004;-67
2021/01/22 12:41:37;;;;;;;13.55;4.65;;;29.70;57.70;;;;;;6242708;23;20039;-67
2021/01/22 12:44:03;;;;;;;14.85;5.45;;;29.70;58.10;;;;;;6240717;23;20430;-68
2021/01/22 12:46:30;;;;;;;10.35;3.17;;;29.70;58.40;;;;;;6242546;23;20040;-67
2021/01/22 12:48:56;;;;;;;9.43;3.38;;;29.60;59.00;;;;;;6241614;23;20440;-66
2021/01/22 12:51:25;;;;;;;9.75;4.57;;;29.70;58.80;;;;;;6242599;23;20049;-66
2021/01/22 12:53:51;;;;;;;8.82;3.08;;;29.70;58.60;;;;;;6241793;23;20439;-67
2021/01/22 12:56:18;;;;;;;10.68;2.92;;;29.70;58.70;;;;;;6242018;23;19992;-67
2021/01/22 12:58:45;;;;;;;12.75;3.50;;;29.80;58.90;;;;;;6242388;23;20023;-67
2021/01/22 13:01:11;;;;;;;17.13;4.43;;;29.80;58.80;;;;;;6240671;23;20452;-68
2021/01/22 13:03:38;;;;;;;9.27;3.42;;;29.80;58.80;;;;;;6241819;23;20011;-67
2021/01/22 13:06:04;;;;;;;11.00;4.88;;;29.80;58.80;;;;;;6241294;23;20004;-68
2021/01/22 13:08:31;;;;;;;9.98;3.13;;;29.80;59.00;;;;;;6242680;23;20086;-66
2021/01/22 13:10:58;;;;;;;11.02;3.72;;;29.70;58.90;;;;;;6241750;23;19996;-67
2021/01/22 13:13:26;;;;;;;8.15;3.75;;;29.70;59.30;;;;;;6241796;23;20001;-66
2021/01/22 13:15:53;;;;;;;11.73;3.47;;;29.60;59.00;;;;;;6241823;23;20012;-66
2021/01/22 13:18:20;;;;;;;10.23;4.03;;;29.70;59.40;;;;;;6241388;23;19992;-67
2021/01/22 13:20:47;;;;;;;11.60;3.60;;;29.70;59.10;;;;;;6242081;23;20006;-67
2021/01/22 13:23:13;;;;;;;10.38;3.28;;;29.70;59.10;;;;;;6240863;23;20062;-67
2021/01/22 13:25:40;;;;;;;9.57;4.07;;;29.70;58.90;;;;;;6240384;23;20066;-68
2021/01/22 13:28:07;;;;;;;11.30;3.55;;;29.70;59.20;;;;;;6241299;23;20008;-67
2021/01/22 13:30:33;;;;;;;13.88;4.93;;;29.70;59.10;;;;;;6241600;23;20000;-67
2021/01/22 13:33:39;;;;;;;11.18;3.60;;;29.80;59.00;;;;;;6236028;23;20012;-74
2021/01/22 13:36:46;;;;;;;9.65;2.95;;;29.80;58.50;;;;;;6239255;23;20024;-66
2021/01/22 13:39:52;;;;;;;9.45;2.75;;;29.80;58.60;;;;;;6241787;23;20324;-67
2021/01/22 13:42:58;;;;;;;11.57;3.50;;;29.90;58.50;;;;;;6241310;23;20012;-67
2021/01/22 13:46:04;;;;;;;7.30;2.58;;;29.90;58.00;;;;;;6239214;23;20099;-68
2021/01/22 13:49:10;;;;;;;15.57;4.80;;;30.00;58.00;;;;;;6241372;23;20008;-67